sensor_id;sensor_type;location;lat;lon;timestamp;temperature;humidity
8563;DHT22;16392;52.508;13.468;2022-12-18T00:01:01;-4.70;99.90
8563;DHT22;16392;52.508;13.468;2022-12-18T00:03:31;-4.70;99.90
8563;DHT22;16392;52.508;13.468;2022-12-18T00:05:58;-4.70;99.90
8563;DHT22;16392;52.508;13.468;2022-12-18T00:08:25;-4.60;99.90
8563;DHT22;16392;52.508;13.468;2022-12-18T00:10:51;-4.80;99.90
8563;DHT22;16392;52.508;13.468;2022-12-18T00:13:18;-4.80;99.90
8563;DHT22;16392;52.508;13.468;2022-12-18T00:15:46;-4.80;99.90
8563;DHT22;16392;52.508;13.468;2022-12-18T00:18:12;-4.80;99.90
8563;DHT22;16392;52.508;13.468;2022-12-18T00:20:39;-4.70;99.90
8563;DHT22;16392;52.508;13.468;2022-12-18T00:23:07;-4.70;99.90
8563;DHT22;16392;52.508;13.468;2022-12-18T00:25:33;-4.80;99.90
8563;DHT22;16392;52.508;13.468;2022-12-18T00:28:00;-4.90;99.90
8563;DHT22;16392;52.508;13.468;2022-12-18T00:30:27;-4.90;99.90
8563;DHT22;16392;52.508;13.468;2022-12-18T00:32:55;-5.00;99.90
8563;DHT22;16392;52.508;13.468;2022-12-18T00:35:22;-5.00;99.90
8563;DHT22;16392;52.508;13.468;2022-12-18T00:37:49;-5.00;99.90
8563;DHT22;16392;52.508;13.468;2022-12-18T00:40:15;-5.10;99.90
8563;DHT22;16392;52.508;13.468;2022-12-18T00:42:42;-5.20;99.90
8563;DHT22;16392;52.508;13.468;2022-12-18T00:45:23;-5.20;99.90
8563;DHT22;16392;52.508;13.468;2022-12-18T00:47:51;-5.20;99.90
8563;DHT22;16392;52.508;13.468;2022-12-18T00:50:19;-5.30;99.90
8563;DHT22;16392;52.508;13.468;2022-12-18T00:52:46;-5.30;99.90
8563;DHT22;16392;52.508;13.468;2022-12-18T00:55:13;-5.30;99.90
8563;DHT22;16392;52.508;13.468;2022-12-18T00:57:41;-5.40;99.90
8563;DHT22;16392;52.508;13.468;2022-12-18T01:00:09;-5.40;99.90
8563;DHT22;16392;52.508;13.468;2022-12-18T01:02:36;-5.30;99.90
8563;DHT22;16392;52.508;13.468;2022-12-18T01:05:04;-5.20;99.90
8563;DHT22;16392;52.508;13.468;2022-12-18T01:07:33;-5.20;99.90
8563;DHT22;16392;52.508;13.468;2022-12-18T01:10:00;-5.20;99.90
8563;DHT22;16392;52.508;13.468;2022-12-18T01:12:26;-5.20;99.90
8563;DHT22;16392;52.508;13.468;2022-12-18T01:14:53;-5.20;99.90
8563;DHT22;16392;52.508;13.468;2022-12-18T01:17:19;-5.20;99.90
8563;DHT22;16392;52.508;13.468;2022-12-18T01:19:46;-5.10;99.90
8563;DHT22;16392;52.508;13.468;2022-12-18T01:22:13;-5.10;99.90
8563;DHT22;16392;52.508;13.468;2022-12-18T01:24:41;-5.20;99.90
8563;DHT22;16392;52.508;13.468;2022-12-18T01:27:07;-5.40;99.90
8563;DHT22;16392;52.508;13.468;2022-12-18T01:29:34;-5.50;99.90
8563;DHT22;16392;52.508;13.468;2022-12-18T01:32:01;-5.50;99.90
8563;DHT22;16392;52.508;13.468;2022-12-18T01:34:27;-5.40;99.90
8563;DHT22;16392;52.508;13.468;2022-12-18T01:36:54;-5.50;99.90
8563;DHT22;16392;52.508;13.468;2022-12-18T01:39:20;-5.50;99.90
8563;DHT22;16392;52.508;13.468;2022-12-18T01:41:48;-5.50;99.90
8563;DHT22;16392;52.508;13.468;2022-12-18T01:44:58;-5.50;99.90
8563;DHT22;16392;52.508;13.468;2022-12-18T01:47:29;-5.50;99.90
8563;DHT22;16392;52.508;13.468;2022-12-18T01:49:57;-5.50;99.90
8563;DHT22;16392;52.508;13.468;2022-12-18T01:52:29;-5.40;99.90
8563;DHT22;16392;52.508;13.468;2022-12-18T01:54:57;-5.50;99.90
8563;DHT22;16392;52.508;13.468;2022-12-18T01:57:26;-5.50;99.90
8563;DHT22;16392;52.508;13.468;2022-12-18T01:59:56;-5.50;99.90
8563;DHT22;16392;52.508;13.468;2022-12-18T02:02:26;-5.50;99.90
8563;DHT22;16392;52.508;13.468;2022-12-18T02:04:54;-5.50;99.90
8563;DHT22;16392;52.508;13.468;2022-12-18T02:07:28;-5.50;99.90
8563;DHT22;16392;52.508;13.468;2022-12-18T02:10:00;-5.40;99.90
8563;DHT22;16392;52.508;13.468;2022-12-18T02:12:35;-5.40;99.90
8563;DHT22;16392;52.508;13.468;2022-12-18T02:15:09;-5.30;99.90
8563;DHT22;16392;52.508;13.468;2022-12-18T02:17:43;-5.30;99.90
8563;DHT22;16392;52.508;13.468;2022-12-18T02:20:16;-5.40;99.90
8563;DHT22;16392;52.508;13.468;2022-12-18T02:22:54;-5.40;99.90
8563;DHT22;16392;52.508;13.468;2022-12-18T02:25:38;-5.50;99.90
8563;DHT22;16392;52.508;13.468;2022-12-18T02:28:13;-5.50;99.90
8563;DHT22;16392;52.508;13.468;2022-12-18T02:30:42;-5.40;99.90
8563;DHT22;16392;52.508;13.468;2022-12-18T02:33:11;-5.50;99.90
8563;DHT22;16392;52.508;13.468;2022-12-18T02:35:39;-5.50;99.90
8563;DHT22;16392;52.508;13.468;2022-12-18T02:38:06;-5.40;99.90
8563;DHT22;16392;52.508;13.468;2022-12-18T02:40:34;-5.40;99.90
8563;DHT22;16392;52.508;13.468;2022-12-18T02:43:08;-5.30;99.90
8563;DHT22;16392;52.508;13.468;2022-12-18T02:45:34;-5.30;99.90
8563;DHT22;16392;52.508;13.468;2022-12-18T02:48:01;-5.30;99.90
8563;DHT22;16392;52.508;13.468;2022-12-18T02:50:33;-5.30;99.90
8563;DHT22;16392;52.508;13.468;2022-12-18T02:53:06;-5.30;99.90
8563;DHT22;16392;52.508;13.468;2022-12-18T02:55:44;-5.30;99.90
8563;DHT22;16392;52.508;13.468;2022-12-18T02:58:17;-5.40;99.90
8563;DHT22;16392;52.508;13.468;2022-12-18T03:00:51;-5.50;99.90
8563;DHT22;16392;52.508;13.468;2022-12-18T03:03:21;-5.50;99.90
8563;DHT22;16392;52.508;13.468;2022-12-18T03:05:52;-5.60;99.90
8563;DHT22;16392;52.508;13.468;2022-12-18T03:08:22;-5.60;99.90
8563;DHT22;16392;52.508;13.468;2022-12-18T03:10:52;-5.60;99.90
8563;DHT22;16392;52.508;13.468;2022-12-18T03:13:29;-5.60;99.90
8563;DHT22;16392;52.508;13.468;2022-12-18T03:15:59;-5.50;99.90
8563;DHT22;16392;52.508;13.468;2022-12-18T03:18:30;-5.60;99.90
8563;DHT22;16392;52.508;13.468;2022-12-18T03:21:01;-5.60;99.90
8563;DHT22;16392;52.508;13.468;2022-12-18T03:23:32;-5.50;99.90
8563;DHT22;16392;52.508;13.468;2022-12-18T03:26:13;-5.50;99.90
8563;DHT22;16392;52.508;13.468;2022-12-18T03:28:46;-5.70;99.90
8563;DHT22;16392;52.508;13.468;2022-12-18T03:31:14;-5.80;99.90
8563;DHT22;16392;52.508;13.468;2022-12-18T03:33:43;-5.70;99.90
8563;DHT22;16392;52.508;13.468;2022-12-18T03:36:11;-5.80;99.90
8563;DHT22;16392;52.508;13.468;2022-12-18T03:38:38;-5.70;99.90
8563;DHT22;16392;52.508;13.468;2022-12-18T03:41:13;-5.60;99.90
8563;DHT22;16392;52.508;13.468;2022-12-18T03:43:48;-5.60;99.90
8563;DHT22;16392;52.508;13.468;2022-12-18T03:46:23;-5.70;99.90
8563;DHT22;16392;52.508;13.468;2022-12-18T03:48:57;-5.70;99.90
8563;DHT22;16392;52.508;13.468;2022-12-18T03:51:28;-5.70;99.90
8563;DHT22;16392;52.508;13.468;2022-12-18T03:53:58;-5.70;99.90
8563;DHT22;16392;52.508;13.468;2022-12-18T03:56:29;-5.60;99.90
8563;DHT22;16392;52.508;13.468;2022-12-18T03:58:59;-5.60;99.90
8563;DHT22;16392;52.508;13.468;2022-12-18T04:01:31;-5.50;99.90
8563;DHT22;16392;52.508;13.468;2022-12-18T04:03:59;-5.60;99.90
8563;DHT22;16392;52.508;13.468;2022-12-18T04:06:27;-5.60;99.90
8563;DHT22;16392;52.508;13.468;2022-12-18T04:08:55;-5.70;99.90
8563;DHT22;16392;52.508;13.468;2022-12-18T04:11:22;-5.70;99.90
8563;DHT22;16392;52.508;13.468;2022-12-18T04:13:49;-5.80;99.90
8563;DHT22;16392;52.508;13.468;2022-12-18T04:16:17;-6.00;99.90
8563;DHT22;16392;52.508;13.468;2022-12-18T04:18:43;-5.90;99.90
8563;DHT22;16392;52.508;13.468;2022-12-18T04:21:10;-5.90;99.90
8563;DHT22;16392;52.508;13.468;2022-12-18T04:23:37;-5.80;99.90
8563;DHT22;16392;52.508;13.468;2022-12-18T04:26:04;-5.90;99.90
8563;DHT22;16392;52.508;13.468;2022-12-18T04:28:30;-5.90;99.90
8563;DHT22;16392;52.508;13.468;2022-12-18T04:30:57;-5.80;99.90
8563;DHT22;16392;52.508;13.468;2022-12-18T04:33:25;-5.90;99.90
8563;DHT22;16392;52.508;13.468;2022-12-18T04:35:51;-5.90;99.90
8563;DHT22;16392;52.508;13.468;2022-12-18T04:38:18;-6.00;99.90
8563;DHT22;16392;52.508;13.468;2022-12-18T04:40:45;-6.00;99.90
8563;DHT22;16392;52.508;13.468;2022-12-18T04:43:12;-5.90;99.90
8563;DHT22;16392;52.508;13.468;2022-12-18T04:45:38;-5.90;99.90
8563;DHT22;16392;52.508;13.468;2022-12-18T04:48:05;-5.90;99.90
8563;DHT22;16392;52.508;13.468;2022-12-18T04:50:33;-5.90;99.90
8563;DHT22;16392;52.508;13.468;2022-12-18T04:53:00;-5.90;99.90
8563;DHT22;16392;52.508;13.468;2022-12-18T04:55:27;-6.00;99.90
8563;DHT22;16392;52.508;13.468;2022-12-18T04:57:54;-6.00;99.90
8563;DHT22;16392;52.508;13.468;2022-12-18T05:00:21;-6.10;99.90
8563;DHT22;16392;52.508;13.468;2022-12-18T05:02:48;-6.10;99.90
8563;DHT22;16392;52.508;13.468;2022-12-18T05:05:15;-6.10;99.90
8563;DHT22;16392;52.508;13.468;2022-12-18T05:07:43;-6.10;99.90
8563;DHT22;16392;52.508;13.468;2022-12-18T05:10:10;-6.10;99.90
8563;DHT22;16392;52.508;13.468;2022-12-18T05:12:37;-6.00;99.90
8563;DHT22;16392;52.508;13.468;2022-12-18T05:15:24;-5.90;99.90
8563;DHT22;16392;52.508;13.468;2022-12-18T05:17:50;-5.90;99.90
8563;DHT22;16392;52.508;13.468;2022-12-18T05:20:17;-5.90;99.90
8563;DHT22;16392;52.508;13.468;2022-12-18T05:22:45;-5.90;99.90
8563;DHT22;16392;52.508;13.468;2022-12-18T05:25:12;-5.80;99.90
8563;DHT22;16392;52.508;13.468;2022-12-18T05:27:39;-5.80;99.90
8563;DHT22;16392;52.508;13.468;2022-12-18T05:30:07;-5.80;99.90
8563;DHT22;16392;52.508;13.468;2022-12-18T05:32:34;-5.70;99.90
8563;DHT22;16392;52.508;13.468;2022-12-18T05:35:00;-5.70;99.90
8563;DHT22;16392;52.508;13.468;2022-12-18T05:37:27;-5.70;99.90
8563;DHT22;16392;52.508;13.468;2022-12-18T05:39:55;-5.60;99.90
8563;DHT22;16392;52.508;13.468;2022-12-18T05:42:22;-5.60;99.90
8563;DHT22;16392;52.508;13.468;2022-12-18T05:44:48;-5.60;99.90
8563;DHT22;16392;52.508;13.468;2022-12-18T05:47:15;-5.70;99.90
8563;DHT22;16392;52.508;13.468;2022-12-18T05:49:42;-5.70;99.90
8563;DHT22;16392;52.508;13.468;2022-12-18T05:52:09;-5.60;99.90
8563;DHT22;16392;52.508;13.468;2022-12-18T05:54:35;-5.60;99.90
8563;DHT22;16392;52.508;13.468;2022-12-18T05:57:03;-5.50;99.90
8563;DHT22;16392;52.508;13.468;2022-12-18T05:59:30;-5.50;99.90
8563;DHT22;16392;52.508;13.468;2022-12-18T06:01:56;-5.50;99.90
8563;DHT22;16392;52.508;13.468;2022-12-18T06:04:23;-5.50;99.90
8563;DHT22;16392;52.508;13.468;2022-12-18T06:06:50;-5.40;99.90
8563;DHT22;16392;52.508;13.468;2022-12-18T06:09:16;-5.50;99.90
8563;DHT22;16392;52.508;13.468;2022-12-18T06:11:43;-5.60;99.90
8563;DHT22;16392;52.508;13.468;2022-12-18T06:14:11;-5.70;99.90
8563;DHT22;16392;52.508;13.468;2022-12-18T06:16:38;-5.70;99.90
8563;DHT22;16392;52.508;13.468;2022-12-18T06:19:05;-5.60;99.90
8563;DHT22;16392;52.508;13.468;2022-12-18T06:21:33;-5.60;99.90
8563;DHT22;16392;52.508;13.468;2022-12-18T06:24:00;-5.60;99.90
8563;DHT22;16392;52.508;13.468;2022-12-18T06:26:26;-5.60;99.90
8563;DHT22;16392;52.508;13.468;2022-12-18T06:28:53;-5.60;99.90
8563;DHT22;16392;52.508;13.468;2022-12-18T06:31:22;-5.70;99.90
8563;DHT22;16392;52.508;13.468;2022-12-18T06:33:48;-5.60;99.90
8563;DHT22;16392;52.508;13.468;2022-12-18T06:36:15;-5.60;99.90
8563;DHT22;16392;52.508;13.468;2022-12-18T06:38:43;-5.70;99.90
8563;DHT22;16392;52.508;13.468;2022-12-18T06:41:11;-5.70;99.90
8563;DHT22;16392;52.508;13.468;2022-12-18T06:43:38;-5.70;99.90
8563;DHT22;16392;52.508;13.468;2022-12-18T06:46:05;-5.70;99.90
8563;DHT22;16392;52.508;13.468;2022-12-18T06:48:33;-5.60;99.90
8563;DHT22;16392;52.508;13.468;2022-12-18T06:51:01;-5.70;99.90
8563;DHT22;16392;52.508;13.468;2022-12-18T06:53:28;-5.70;99.90
8563;DHT22;16392;52.508;13.468;2022-12-18T06:56:00;-5.70;99.90
8563;DHT22;16392;52.508;13.468;2022-12-18T06:58:27;-5.70;99.90
8563;DHT22;16392;52.508;13.468;2022-12-18T07:00:53;-5.60;99.90
8563;DHT22;16392;52.508;13.468;2022-12-18T07:03:20;-5.60;99.90
8563;DHT22;16392;52.508;13.468;2022-12-18T07:05:48;-5.60;99.90
8563;DHT22;16392;52.508;13.468;2022-12-18T07:08:14;-5.60;99.90
8563;DHT22;16392;52.508;13.468;2022-12-18T07:10:41;-5.60;99.90
8563;DHT22;16392;52.508;13.468;2022-12-18T07:13:09;-5.50;99.90
8563;DHT22;16392;52.508;13.468;2022-12-18T07:15:35;-5.60;99.90
8563;DHT22;16392;52.508;13.468;2022-12-18T07:18:03;-5.50;99.90
8563;DHT22;16392;52.508;13.468;2022-12-18T07:20:29;-5.50;99.90
8563;DHT22;16392;52.508;13.468;2022-12-18T07:22:57;-5.40;99.90
8563;DHT22;16392;52.508;13.468;2022-12-18T07:25:24;-5.40;99.90
8563;DHT22;16392;52.508;13.468;2022-12-18T07:27:51;-5.50;99.90
8563;DHT22;16392;52.508;13.468;2022-12-18T07:30:17;-5.50;99.90
8563;DHT22;16392;52.508;13.468;2022-12-18T07:32:44;-5.50;99.90
8563;DHT22;16392;52.508;13.468;2022-12-18T07:35:11;-5.50;99.90
8563;DHT22;16392;52.508;13.468;2022-12-18T07:37:38;-5.40;99.90
8563;DHT22;16392;52.508;13.468;2022-12-18T07:40:08;-5.40;99.90
8563;DHT22;16392;52.508;13.468;2022-12-18T07:42:35;-5.40;99.90
8563;DHT22;16392;52.508;13.468;2022-12-18T07:45:03;-5.30;99.90
8563;DHT22;16392;52.508;13.468;2022-12-18T07:47:35;-5.30;99.90
8563;DHT22;16392;52.508;13.468;2022-12-18T07:50:04;-5.30;99.90
8563;DHT22;16392;52.508;13.468;2022-12-18T07:52:31;-5.30;99.90
8563;DHT22;16392;52.508;13.468;2022-12-18T07:54:58;-5.30;99.90
8563;DHT22;16392;52.508;13.468;2022-12-18T07:57:26;-5.20;99.90
8563;DHT22;16392;52.508;13.468;2022-12-18T07:59:52;-5.20;99.90
8563;DHT22;16392;52.508;13.468;2022-12-18T08:02:19;-5.20;99.90
8563;DHT22;16392;52.508;13.468;2022-12-18T08:04:46;-5.40;99.90
8563;DHT22;16392;52.508;13.468;2022-12-18T08:07:13;-5.40;99.90
8563;DHT22;16392;52.508;13.468;2022-12-18T08:09:39;-5.40;99.90
8563;DHT22;16392;52.508;13.468;2022-12-18T08:12:06;-5.30;99.90
8563;DHT22;16392;52.508;13.468;2022-12-18T08:14:34;-5.30;99.90
8563;DHT22;16392;52.508;13.468;2022-12-18T08:17:00;-5.40;99.90
8563;DHT22;16392;52.508;13.468;2022-12-18T08:19:27;-5.30;99.90
8563;DHT22;16392;52.508;13.468;2022-12-18T08:21:54;-5.20;99.90
8563;DHT22;16392;52.508;13.468;2022-12-18T08:24:20;-5.30;99.90
8563;DHT22;16392;52.508;13.468;2022-12-18T08:26:47;-5.30;99.90
8563;DHT22;16392;52.508;13.468;2022-12-18T08:29:14;-5.30;99.90
8563;DHT22;16392;52.508;13.468;2022-12-18T08:31:42;-5.20;99.90
8563;DHT22;16392;52.508;13.468;2022-12-18T08:34:09;-5.30;99.90
8563;DHT22;16392;52.508;13.468;2022-12-18T08:36:35;-5.20;99.90
8563;DHT22;16392;52.508;13.468;2022-12-18T08:39:02;-5.20;99.90
8563;DHT22;16392;52.508;13.468;2022-12-18T08:41:29;-5.20;99.90
8563;DHT22;16392;52.508;13.468;2022-12-18T08:43:55;-5.20;99.90
8563;DHT22;16392;52.508;13.468;2022-12-18T08:46:42;-5.20;99.90
8563;DHT22;16392;52.508;13.468;2022-12-18T08:49:10;-5.20;99.90
8563;DHT22;16392;52.508;13.468;2022-12-18T08:51:38;-5.10;99.90
8563;DHT22;16392;52.508;13.468;2022-12-18T08:54:06;-5.20;99.90
8563;DHT22;16392;52.508;13.468;2022-12-18T08:56:33;-5.10;99.90
8563;DHT22;16392;52.508;13.468;2022-12-18T08:59:00;-5.00;99.90
8563;DHT22;16392;52.508;13.468;2022-12-18T09:01:26;-5.00;99.90
8563;DHT22;16392;52.508;13.468;2022-12-18T09:03:55;-5.00;99.90
8563;DHT22;16392;52.508;13.468;2022-12-18T09:06:22;-5.10;99.90
8563;DHT22;16392;52.508;13.468;2022-12-18T09:08:49;-5.00;99.90
8563;DHT22;16392;52.508;13.468;2022-12-18T09:11:20;-4.90;99.90
8563;DHT22;16392;52.508;13.468;2022-12-18T09:13:47;-4.90;99.90
8563;DHT22;16392;52.508;13.468;2022-12-18T09:16:13;-4.80;99.90
8563;DHT22;16392;52.508;13.468;2022-12-18T09:18:40;-4.70;99.90
8563;DHT22;16392;52.508;13.468;2022-12-18T09:21:10;-4.70;99.90
8563;DHT22;16392;52.508;13.468;2022-12-18T09:23:37;-4.60;99.90
8563;DHT22;16392;52.508;13.468;2022-12-18T09:26:04;-4.70;99.90
8563;DHT22;16392;52.508;13.468;2022-12-18T09:28:31;-4.60;99.90
8563;DHT22;16392;52.508;13.468;2022-12-18T09:30:57;-4.50;99.90
8563;DHT22;16392;52.508;13.468;2022-12-18T09:33:24;-4.40;99.90
8563;DHT22;16392;52.508;13.468;2022-12-18T09:35:51;-4.40;99.90
8563;DHT22;16392;52.508;13.468;2022-12-18T09:38:19;-4.40;99.90
8563;DHT22;16392;52.508;13.468;2022-12-18T09:40:49;-4.30;99.90
8563;DHT22;16392;52.508;13.468;2022-12-18T09:43:18;-4.30;99.90
8563;DHT22;16392;52.508;13.468;2022-12-18T09:45:50;-4.20;99.90
8563;DHT22;16392;52.508;13.468;2022-12-18T09:48:23;-4.20;99.90
8563;DHT22;16392;52.508;13.468;2022-12-18T09:50:51;-4.20;99.90
8563;DHT22;16392;52.508;13.468;2022-12-18T09:53:41;-4.20;99.90
8563;DHT22;16392;52.508;13.468;2022-12-18T09:56:16;-4.10;99.90
8563;DHT22;16392;52.508;13.468;2022-12-18T09:58:52;-3.90;99.90
8563;DHT22;16392;52.508;13.468;2022-12-18T10:01:22;-3.90;99.90
8563;DHT22;16392;52.508;13.468;2022-12-18T10:03:50;-3.90;99.90
8563;DHT22;16392;52.508;13.468;2022-12-18T10:06:21;-3.90;99.90
8563;DHT22;16392;52.508;13.468;2022-12-18T10:08:56;-3.80;99.90
8563;DHT22;16392;52.508;13.468;2022-12-18T10:11:34;-3.60;99.90
8563;DHT22;16392;52.508;13.468;2022-12-18T10:14:10;-3.60;99.90
8563;DHT22;16392;52.508;13.468;2022-12-18T10:16:51;-3.70;99.90
8563;DHT22;16392;52.508;13.468;2022-12-18T10:19:30;-3.70;99.90
8563;DHT22;16392;52.508;13.468;2022-12-18T10:22:08;-3.70;99.90
8563;DHT22;16392;52.508;13.468;2022-12-18T10:24:44;-3.70;99.90
8563;DHT22;16392;52.508;13.468;2022-12-18T10:27:15;-3.70;99.90
8563;DHT22;16392;52.508;13.468;2022-12-18T10:29:42;-3.60;99.90
8563;DHT22;16392;52.508;13.468;2022-12-18T10:32:15;-3.50;99.90
8563;DHT22;16392;52.508;13.468;2022-12-18T10:34:45;-3.50;99.90
8563;DHT22;16392;52.508;13.468;2022-12-18T10:37:16;-3.60;99.90
8563;DHT22;16392;52.508;13.468;2022-12-18T10:39:45;-3.60;99.90
8563;DHT22;16392;52.508;13.468;2022-12-18T10:42:17;-3.50;99.90
8563;DHT22;16392;52.508;13.468;2022-12-18T10:44:44;-3.60;99.90
8563;DHT22;16392;52.508;13.468;2022-12-18T10:47:14;-3.50;99.90
8563;DHT22;16392;52.508;13.468;2022-12-18T10:49:47;-3.50;99.90
8563;DHT22;16392;52.508;13.468;2022-12-18T10:52:17;-3.50;99.90
8563;DHT22;16392;52.508;13.468;2022-12-18T10:54:49;-3.40;99.90
8563;DHT22;16392;52.508;13.468;2022-12-18T10:57:28;-3.30;99.90
8563;DHT22;16392;52.508;13.468;2022-12-18T10:59:58;-3.40;99.90
8563;DHT22;16392;52.508;13.468;2022-12-18T11:02:28;-3.50;99.90
8563;DHT22;16392;52.508;13.468;2022-12-18T11:05:00;-3.50;99.90
8563;DHT22;16392;52.508;13.468;2022-12-18T11:07:47;-3.30;99.90
8563;DHT22;16392;52.508;13.468;2022-12-18T11:10:17;-3.30;99.90
8563;DHT22;16392;52.508;13.468;2022-12-18T11:12:44;-3.30;99.90
8563;DHT22;16392;52.508;13.468;2022-12-18T11:15:15;-3.40;99.90
8563;DHT22;16392;52.508;13.468;2022-12-18T11:17:43;-3.40;99.90
8563;DHT22;16392;52.508;13.468;2022-12-18T11:20:21;-3.40;99.90
8563;DHT22;16392;52.508;13.468;2022-12-18T11:22:55;-3.40;99.90
8563;DHT22;16392;52.508;13.468;2022-12-18T11:25:25;-3.30;99.90
8563;DHT22;16392;52.508;13.468;2022-12-18T11:27:57;-3.30;99.90
8563;DHT22;16392;52.508;13.468;2022-12-18T11:30:27;-3.30;99.90
8563;DHT22;16392;52.508;13.468;2022-12-18T11:32:58;-3.30;99.90
8563;DHT22;16392;52.508;13.468;2022-12-18T11:35:37;-3.20;99.90
8563;DHT22;16392;52.508;13.468;2022-12-18T11:38:10;-3.30;99.90
8563;DHT22;16392;52.508;13.468;2022-12-18T11:40:42;-3.40;99.90
8563;DHT22;16392;52.508;13.468;2022-12-18T11:43:14;-3.50;99.90
8563;DHT22;16392;52.508;13.468;2022-12-18T11:45:47;-3.50;99.90
8563;DHT22;16392;52.508;13.468;2022-12-18T11:48:18;-3.60;99.90
8563;DHT22;16392;52.508;13.468;2022-12-18T11:50:50;-3.70;99.90
8563;DHT22;16392;52.508;13.468;2022-12-18T11:53:17;-3.60;99.90
8563;DHT22;16392;52.508;13.468;2022-12-18T11:55:54;-3.60;99.90
8563;DHT22;16392;52.508;13.468;2022-12-18T11:58:43;-3.60;99.90
8563;DHT22;16392;52.508;13.468;2022-12-18T12:01:18;-3.60;99.90
8563;DHT22;16392;52.508;13.468;2022-12-18T12:06:50;-3.60;99.90
8563;DHT22;16392;52.508;13.468;2022-12-18T12:09:25;-3.60;99.90
8563;DHT22;16392;52.508;13.468;2022-12-18T12:12:10;-3.50;99.90
8563;DHT22;16392;52.508;13.468;2022-12-18T12:14:47;-3.50;99.90
8563;DHT22;16392;52.508;13.468;2022-12-18T12:17:24;-3.40;99.90
8563;DHT22;16392;52.508;13.468;2022-12-18T12:19:59;-3.30;99.90
8563;DHT22;16392;52.508;13.468;2022-12-18T12:22:33;-3.30;99.90
8563;DHT22;16392;52.508;13.468;2022-12-18T12:25:25;-3.40;99.90
8563;DHT22;16392;52.508;13.468;2022-12-18T12:28:05;-3.30;99.90
8563;DHT22;16392;52.508;13.468;2022-12-18T12:30:39;-3.30;99.90
8563;DHT22;16392;52.508;13.468;2022-12-18T12:33:19;-3.40;99.90
8563;DHT22;16392;52.508;13.468;2022-12-18T12:35:55;-3.30;99.90
8563;DHT22;16392;52.508;13.468;2022-12-18T12:38:27;-3.30;99.90
8563;DHT22;16392;52.508;13.468;2022-12-18T12:40:58;-3.30;99.90
8563;DHT22;16392;52.508;13.468;2022-12-18T12:43:35;-3.30;99.90
8563;DHT22;16392;52.508;13.468;2022-12-18T12:46:05;-3.30;99.90
8563;DHT22;16392;52.508;13.468;2022-12-18T12:48:40;-3.20;99.90
8563;DHT22;16392;52.508;13.468;2022-12-18T12:51:11;-3.20;99.90
8563;DHT22;16392;52.508;13.468;2022-12-18T12:53:39;-3.20;99.90
8563;DHT22;16392;52.508;13.468;2022-12-18T12:56:09;-3.20;99.90
8563;DHT22;16392;52.508;13.468;2022-12-18T12:58:45;-3.20;99.90
8563;DHT22;16392;52.508;13.468;2022-12-18T13:01:23;-3.10;99.90
8563;DHT22;16392;52.508;13.468;2022-12-18T13:04:03;-3.10;99.90
8563;DHT22;16392;52.508;13.468;2022-12-18T13:06:42;-3.10;99.90
8563;DHT22;16392;52.508;13.468;2022-12-18T13:09:10;-3.00;99.90
8563;DHT22;16392;52.508;13.468;2022-12-18T13:11:39;-3.10;99.90
8563;DHT22;16392;52.508;13.468;2022-12-18T13:14:29;-3.20;99.90
8563;DHT22;16392;52.508;13.468;2022-12-18T13:17:22;-3.00;99.90
8563;DHT22;16392;52.508;13.468;2022-12-18T13:20:04;-3.00;99.90
8563;DHT22;16392;52.508;13.468;2022-12-18T13:22:35;-2.90;99.90
8563;DHT22;16392;52.508;13.468;2022-12-18T13:25:04;-3.00;99.90
8563;DHT22;16392;52.508;13.468;2022-12-18T13:28:03;-3.00;99.90
8563;DHT22;16392;52.508;13.468;2022-12-18T13:30:56;-3.00;99.90
8563;DHT22;16392;52.508;13.468;2022-12-18T13:33:42;-3.10;99.90
8563;DHT22;16392;52.508;13.468;2022-12-18T13:36:13;-3.00;99.90
8563;DHT22;16392;52.508;13.468;2022-12-18T13:38:41;-3.00;99.90
8563;DHT22;16392;52.508;13.468;2022-12-18T13:41:23;-2.90;99.90
8563;DHT22;16392;52.508;13.468;2022-12-18T13:43:52;-2.90;99.90
8563;DHT22;16392;52.508;13.468;2022-12-18T13:46:23;-3.00;99.90
8563;DHT22;16392;52.508;13.468;2022-12-18T13:48:55;-3.00;99.90
8563;DHT22;16392;52.508;13.468;2022-12-18T13:51:24;-3.00;99.90
8563;DHT22;16392;52.508;13.468;2022-12-18T13:53:53;-3.10;99.90
8563;DHT22;16392;52.508;13.468;2022-12-18T13:56:23;-3.10;99.90
8563;DHT22;16392;52.508;13.468;2022-12-18T13:59:08;-3.10;99.90
8563;DHT22;16392;52.508;13.468;2022-12-18T14:01:42;-3.10;99.90
8563;DHT22;16392;52.508;13.468;2022-12-18T14:04:09;-3.20;99.90
8563;DHT22;16392;52.508;13.468;2022-12-18T14:06:36;-3.20;99.90
8563;DHT22;16392;52.508;13.468;2022-12-18T14:09:03;-3.20;99.90
8563;DHT22;16392;52.508;13.468;2022-12-18T14:11:30;-3.20;99.90
8563;DHT22;16392;52.508;13.468;2022-12-18T14:13:57;-3.20;99.90
8563;DHT22;16392;52.508;13.468;2022-12-18T14:16:23;-3.20;99.90
8563;DHT22;16392;52.508;13.468;2022-12-18T14:18:53;-3.20;99.90
8563;DHT22;16392;52.508;13.468;2022-12-18T14:21:23;-3.20;99.90
8563;DHT22;16392;52.508;13.468;2022-12-18T14:24:04;-3.20;99.90
8563;DHT22;16392;52.508;13.468;2022-12-18T14:26:32;-3.20;99.90
8563;DHT22;16392;52.508;13.468;2022-12-18T14:29:00;-3.20;99.90
8563;DHT22;16392;52.508;13.468;2022-12-18T14:31:29;-3.10;99.90
8563;DHT22;16392;52.508;13.468;2022-12-18T14:33:57;-3.20;99.90
8563;DHT22;16392;52.508;13.468;2022-12-18T14:36:26;-3.20;99.90
8563;DHT22;16392;52.508;13.468;2022-12-18T14:38:53;-3.30;99.90
8563;DHT22;16392;52.508;13.468;2022-12-18T14:41:21;-3.30;99.90
8563;DHT22;16392;52.508;13.468;2022-12-18T14:43:50;-3.40;99.90
8563;DHT22;16392;52.508;13.468;2022-12-18T14:46:29;-3.40;99.90
8563;DHT22;16392;52.508;13.468;2022-12-18T14:49:00;-3.40;99.90
8563;DHT22;16392;52.508;13.468;2022-12-18T14:51:29;-3.40;99.90
8563;DHT22;16392;52.508;13.468;2022-12-18T14:53:58;-3.40;99.90
8563;DHT22;16392;52.508;13.468;2022-12-18T14:56:27;-3.40;99.90
8563;DHT22;16392;52.508;13.468;2022-12-18T14:58:56;-3.40;99.90
8563;DHT22;16392;52.508;13.468;2022-12-18T15:01:28;-3.40;99.90
8563;DHT22;16392;52.508;13.468;2022-12-18T15:03:57;-3.40;99.90
8563;DHT22;16392;52.508;13.468;2022-12-18T15:06:31;-3.40;99.90
8563;DHT22;16392;52.508;13.468;2022-12-18T15:09:00;-3.40;99.90
8563;DHT22;16392;52.508;13.468;2022-12-18T15:11:29;-3.40;99.90
8563;DHT22;16392;52.508;13.468;2022-12-18T15:13:58;-3.30;99.90
8563;DHT22;16392;52.508;13.468;2022-12-18T15:16:26;-3.30;99.90
8563;DHT22;16392;52.508;13.468;2022-12-18T15:18:53;-3.30;99.90
8563;DHT22;16392;52.508;13.468;2022-12-18T15:21:20;-3.20;99.90
8563;DHT22;16392;52.508;13.468;2022-12-18T15:23:50;-3.30;99.90
8563;DHT22;16392;52.508;13.468;2022-12-18T15:26:18;-3.30;99.90
8563;DHT22;16392;52.508;13.468;2022-12-18T15:28:46;-3.30;99.90
8563;DHT22;16392;52.508;13.468;2022-12-18T15:31:28;-3.30;99.90
8563;DHT22;16392;52.508;13.468;2022-12-18T15:34:11;-3.30;99.90
8563;DHT22;16392;52.508;13.468;2022-12-18T15:36:39;-3.40;99.90
8563;DHT22;16392;52.508;13.468;2022-12-18T15:39:10;-3.40;99.90
8563;DHT22;16392;52.508;13.468;2022-12-18T15:41:37;-3.50;99.90
8563;DHT22;16392;52.508;13.468;2022-12-18T15:44:21;-3.50;99.90
8563;DHT22;16392;52.508;13.468;2022-12-18T15:46:47;-3.50;99.90
8563;DHT22;16392;52.508;13.468;2022-12-18T15:49:14;-3.50;99.90
8563;DHT22;16392;52.508;13.468;2022-12-18T15:51:41;-3.50;99.90